Latest Weather Observations for Mackay Airport

IDQ60801

Issued at 7:32 am EST Thursday 28 May 2015 (issued every 30 minutes, with the page automatically refreshed every 10 minutes)

About weather observations | Map of weather stations | Latest weather observations for QLD | Other Formats
Station Details ID: 033045 Name: MACKAY AERO Lat: -21.17 Lon: 149.18 Height: 4.7 m
Data from the previous 72 hours. | See also: Recent months at Mackay Airport
Date/Time
EST
Temp
°C
App
Temp
°C
Dew
Point
Rel
Hum
%
Delta-T
°C
Wind Press
QNH
hPa
Press
MSL
hPa
Rain
since 9 am
mm
Dir
 
Spd
km/h
Gust
km/h
Spd
kts
Gust
kts
28/07:30am 18.5 19.5 17.7 95 0.5 SSW 9 13 5 7 1020.7 1020.7 0.6
28/07:00am 18.1 19.0 17.5 96 0.4 SSW 9 11 5 6 1020.6 1020.6 0.6
28/06:30am 17.9 19.1 17.3 96 0.4 SSW 7 9 4 5 1020.4 1020.4 0.6
28/06:00am 17.1 17.5 16.3 95 0.5 SSW 9 11 5 6 1019.9 1019.9 0.6
28/05:30am 17.3 17.3 16.3 94 0.6 S 11 13 6 7 1019.6 1019.6 0.4
28/05:00am 18.6 19.7 17.1 91 0.9 SSE 7 9 4 5 1019.3 1019.3 0.4
28/04:30am 19.4 19.7 17.9 91 0.9 SSE 13 19 7 10 1019.3 1019.3 0.4
28/04:00am 19.7 20.2 18.4 92 0.8 SSE 13 19 7 10 1019.4 1019.4 0.4
28/03:30am 19.5 19.5 18.2 92 0.8 SSE 15 20 8 11 1019.2 1019.2 0.4
28/03:00am 19.4 19.1 18.2 93 0.7 SSE 17 20 9 11 1019.3 1019.3 0.4
28/02:30am 19.1 19.5 18.1 94 0.6 S 13 17 7 9 1019.4 1019.4 0.4
28/02:00am 19.2 19.2 18.2 94 0.6 SSW 15 17 8 9 1019.6 1019.6 0.4
28/01:30am 19.7 20.3 18.7 94 0.6 S 13 19 7 10 1019.6 1019.6 0.4
28/01:00am 19.6 19.8 18.6 94 0.6 S 15 19 8 10 1019.8 1019.8 0.4
28/12:33am 19.2 19.2 18.2 94 0.6 S 15 19 8 10 1019.8 1019.8 0.4
28/12:30am 19.2 19.7 18.4 95 0.5 S 13 19 7 10 1019.8 1019.8 0.4
28/12:14am 19.2 20.0 18.2 94 0.6 SSW 11 15 6 8 1019.8 1019.8 0.4
28/12:00am 19.0 19.3 18.0 94 0.6 SSW 13 15 7 8 1019.8 1019.8 0.0
 
Date/Time
EST
Temp
°C
App
Temp
°C
Dew
Point
Rel
Hum
%
Delta-T
°C
Wind Press
QNH
hPa
Press
MSL
hPa
Rain
since 9 am
mm
Dir
 
Spd
km/h
Gust
km/h
Spd
kts
Gust
kts
27/11:30pm 19.0 19.4 18.2 95 0.5 S 13 17 7 9 1020.0 1020.0 0.0
27/11:00pm 18.6 19.2 17.6 94 0.6 S 11 13 6 7 1020.5 1020.5 0.0
27/10:30pm 17.9 18.1 16.8 93 0.7 SSW 11 13 6 7 1020.7 1020.7 0.0
27/10:00pm 19.0 19.3 18.0 94 0.6 S 13 15 7 8 1020.7 1020.7 0.0
27/09:30pm 18.4 19.0 17.6 95 0.5 SSW 11 11 6 6 1020.6 1020.6 0.0
27/09:00pm 18.2 19.3 17.0 93 0.7 S 7 9 4 5 1020.6 1020.6 0.0
27/08:30pm 19.6 20.6 17.7 89 1.2 SSE 9 13 5 7 1020.7 1020.7 0.0
27/08:00pm 20.3 21.2 18.4 89 1.2 SSE 11 13 6 7 1020.6 1020.6 0.0
27/07:30pm 20.4 21.6 18.3 88 1.3 SSE 9 11 5 6 1020.4 1020.4 0.0
27/07:00pm 20.8 21.4 18.6 87 1.4 SE 13 17 7 9 1019.9 1019.9 0.0
27/06:30pm 21.1 20.9 18.5 85 1.6 SE 17 20 9 11 1019.7 1019.7 0.0
27/06:00pm 21.5 20.8 18.7 84 1.8 SE 20 24 11 13 1019.7 1019.7 0.0
27/05:30pm 21.8 21.0 18.4 81 2.1 SE 20 26 11 14 1019.7 1019.7 0.0
27/05:00pm 22.4 21.0 18.8 80 2.3 SE 24 32 13 17 1019.4 1019.4 0.0
27/04:30pm 22.9 21.5 18.7 77 2.7 SE 24 30 13 16 1019.1 1019.1 0.0
27/04:00pm 23.4 21.3 18.9 76 2.8 SE 28 33 15 18 1018.9 1018.9 0.0
27/03:30pm 23.7 20.9 18.1 71 3.5 SE 30 37 16 20 1018.8 1018.8 0.0
27/03:00pm 24.3 21.0 18.0 68 3.9 SE 32 37 17 20 1018.8 1018.8 0.0
27/02:30pm 24.0 20.7 18.4 71 3.5 SE 33 39 18 21 1019.0 1019.0 0.0
27/02:00pm 24.6 22.3 18.5 69 3.9 SE 28 33 15 18 1019.1 1019.1 0.0
27/01:30pm 24.2 21.5 18.4 70 3.7 SE 30 33 16 18 1019.1 1019.1 0.0
27/01:00pm 24.3 21.7 18.7 71 3.5 SE 30 39 16 21 1019.4 1019.4 0.0
27/12:30pm 24.7 21.9 19.1 71 3.6 SE 32 39 17 21 1020.0 1020.0 0.0
27/12:00pm 24.5 21.6 18.9 71 3.6 SE 32 37 17 20 1020.6 1020.6 0.0
27/11:30am 24.6 22.5 19.0 71 3.6 SE 28 33 15 18 1021.0 1021.0 0.0
27/11:00am 24.2 22.0 18.6 71 3.5 SE 28 35 15 19 1021.4 1021.4 0.0
27/10:30am 24.1 22.8 19.0 73 3.2 SE 24 30 13 16 1021.8 1021.8 0.0
27/10:00am 23.1 21.9 18.4 75 2.9 SSE 22 28 12 15 1022.0 1022.0 0.0
27/09:30am 23.3 22.7 19.7 80 2.3 SSE 22 30 12 16 1022.0 1022.0 0.0
27/09:00am 21.9 20.7 18.3 80 2.2 SSE 22 30 12 16 1021.8 1021.8 2.0
27/08:30am 21.4 20.2 18.4 83 1.9 SSE 22 30 12 16 1021.8 1021.8 2.0
27/08:00am 20.3 19.4 17.7 85 1.6 S 19 26 10 14 1021.6 1021.6 2.0
27/07:30am 19.3 19.8 17.4 89 1.2 S 11 17 6 9 1021.4 1021.4 2.0
27/07:00am 17.9 17.7 16.6 92 0.8 SSW 13 15 7 8 1021.3 1021.3 2.0
27/06:30am 17.8 17.6 16.7 93 0.7 S 13 17 7 9 1020.8 1020.8 2.0
27/06:00am 17.7 17.9 16.7 94 0.6 S 11 15 6 8 1020.5 1020.5 2.0
27/05:30am 17.6 17.4 16.6 94 0.6 SSW 13 15 7 8 1020.4 1020.4 2.0
27/05:00am 18.0 18.3 16.9 93 0.7 S 11 17 6 9 1020.2 1020.2 2.0
27/04:30am 18.3 18.2 17.0 92 0.8 S 13 17 7 9 1020.0 1020.0 2.0
27/04:00am 18.3 17.9 17.1 93 0.7 SSW 15 19 8 10 1020.0 1020.0 2.0
27/03:30am 19.1 19.4 17.8 92 0.8 S 13 19 7 10 1020.0 1020.0 2.0
27/03:00am 19.4 19.0 18.1 92 0.8 S 17 20 9 11 1020.1 1020.1 2.0
27/02:30am 19.4 19.8 18.1 92 0.8 S 13 20 7 11 1020.2 1020.2 1.6
27/02:00am 19.9 20.4 18.4 91 0.9 S 13 20 7 11 1020.5 1020.5 1.6
27/01:30am 20.2 20.5 18.7 91 0.9 S 15 20 8 11 1020.8 1020.8 1.6
27/01:00am 20.0 21.4 18.7 92 0.8 S 9 13 5 7 1021.1 1021.1 1.6
27/12:30am 20.1 21.0 18.4 90 1.1 S 11 13 6 7 1021.0 1021.0 1.6
27/12:00am 20.4 20.2 18.5 89 1.2 SSE 17 20 9 11 1021.2 1021.2 1.6
 
Date/Time
EST
Temp
°C
App
Temp
°C
Dew
Point
Rel
Hum
%
Delta-T
°C
Wind Press
QNH
hPa
Press
MSL
hPa
Rain
since 9 am
mm
Dir
 
Spd
km/h
Gust
km/h
Spd
kts
Gust
kts
26/11:30pm 20.6 20.0 18.4 87 1.4 SSE 19 24 10 13 1021.6 1021.6 1.6
26/11:00pm 20.8 19.0 18.7 88 1.3 SE 26 33 14 18 1021.7 1021.7 1.6
26/10:30pm 20.9 18.0 18.8 88 1.3 SE 32 41 17 22 1022.1 1022.1 1.6
26/10:19pm 20.9 19.7 19.2 90 1.1 SSE 24 39 13 21 1022.2 1022.2 1.6
26/10:00pm 20.1 20.8 18.9 93 0.7 S 13 17 7 9 1022.1 1022.1 1.6
26/09:30pm 20.0 21.5 19.0 94 0.6 S 9 13 5 7 1022.2 1022.2 1.6
26/09:00pm 19.9 21.0 18.9 94 0.6 S 11 13 6 7 1022.4 1022.4 1.6
26/08:31pm 20.3 20.8 19.3 94 0.6 S 15 20 8 11 1022.6 1022.6 1.6
26/08:30pm 20.3 20.8 19.3 94 0.6 S 15 20 8 11 1022.6 1022.6 1.6
26/08:28pm 20.3 20.8 19.3 94 0.6 S 15 20 8 11 1022.6 1022.6 1.6
26/08:00pm 20.7 20.6 19.5 93 0.8 ESE 19 26 10 14 1022.7 1022.7 1.2
26/07:57pm 20.7 20.9 19.4 92 0.8 SE 17 26 9 14 1022.6 1022.6 1.0
26/07:52pm 20.8 21.7 19.3 91 0.9 SE 13 26 7 14 1022.6 1022.6 0.4
26/07:36pm 20.7 21.5 19.0 90 1.1 S 13 20 7 11 1022.2 1022.2 0.2
26/07:30pm 20.7 21.5 19.0 90 1.1 S 13 19 7 10 1022.2 1022.2 0.2
26/07:19pm 20.9 21.7 19.0 89 1.2 S 13 19 7 10 1022.3 1022.3 0.2
26/07:16pm 21.0 21.7 18.9 88 1.3 S 13 17 7 9 1022.2 1022.2 0.0
26/07:00pm 21.1 20.4 18.7 86 1.5 SE 20 30 11 16 1022.1 1022.1 0.0
26/06:59pm 21.2 20.6 18.8 86 1.5 SE 20 30 11 16 1022.1 1022.1 0.0
26/06:30pm 21.8 21.6 18.4 81 2.1 SSE 17 20 9 11 1021.8 1021.8 0.0
26/06:00pm 21.7 20.9 18.1 80 2.2 SE 19 22 10 12 1021.3 1021.3 0.0
26/05:30pm 21.5 20.7 18.5 83 1.9 SE 20 30 11 16 1021.0 1021.0 0.0
26/05:00pm 22.2 20.8 18.0 77 2.6 SE 22 30 12 16 1021.0 1021.0 0.0
26/04:30pm 22.3 21.1 18.5 79 2.4 SE 22 28 12 15 1020.7 1020.7 0.0
26/04:00pm 23.2 20.1 18.5 75 3.0 SE 32 39 17 21 1020.5 1020.5 0.0
26/03:30pm 23.6 20.8 18.3 72 3.3 SE 30 37 16 20 1020.5 1020.5 0.0
26/03:00pm 23.8 21.3 18.0 70 3.6 SE 28 35 15 19 1020.5 1020.5 0.0
26/02:30pm 24.0 21.2 18.2 70 3.6 SE 30 35 16 19 1020.9 1020.9 0.0
26/02:00pm 24.2 20.9 18.4 70 3.6 SE 33 39 18 21 1021.2 1021.2 0.0
26/01:30pm 24.4 21.1 17.9 67 4.1 SE 32 39 17 21 1021.4 1021.4 0.0
26/01:00pm 24.5 21.2 18.0 67 4.1 SE 32 39 17 21 1021.9 1021.9 0.0
26/12:30pm 24.0 20.4 17.7 68 3.9 SE 33 39 18 21 1022.5 1022.5 0.0
26/12:00pm 24.5 21.4 18.4 69 3.8 SE 32 43 17 23 1022.8 1022.8 0.0
26/11:30am 24.1 20.9 18.1 69 3.8 SE 32 39 17 21 1023.1 1023.1 0.0
26/11:00am 24.0 20.9 18.4 71 3.5 SE 32 39 17 21 1023.5 1023.5 0.0
26/10:30am 22.8 20.2 18.6 77 2.6 SE 30 37 16 20 1023.9 1023.9 0.0
26/10:00am 22.0 19.2 17.4 75 2.8 SSE 28 32 15 17 1024.1 1024.1 0.0
26/09:30am 21.2 18.7 17.0 77 2.6 SE 26 32 14 17 1024.2 1024.2 0.0
26/09:00am 20.7 18.6 17.1 80 2.2 SSE 24 32 13 17 1024.4 1024.4 4.0
26/08:30am 19.9 17.8 17.1 84 1.7 SSE 24 33 13 18 1024.3 1024.3 4.0
26/08:00am 19.0 17.1 16.6 86 1.4 SSE 22 32 12 17 1024.3 1024.3 4.0
26/07:30am 18.4 16.8 16.6 89 1.1 SSE 20 28 11 15 1024.2 1024.2 4.0
26/07:00am 17.8 16.3 16.3 91 0.9 SSE 19 28 10 15 1024.0 1024.0 4.0
26/06:30am 17.7 16.0 16.2 91 0.9 SSE 20 30 11 16 1023.8 1023.8 4.0
26/06:00am 17.9 15.9 16.4 91 0.9 SSE 22 28 12 15 1023.6 1023.6 4.0
26/05:30am 17.9 16.5 16.6 92 0.8 SSE 19 24 10 13 1023.4 1023.4 4.0
26/05:00am 18.3 16.9 17.1 93 0.7 SSE 20 28 11 15 1023.2 1023.2 4.0
26/04:30am 18.7 16.3 17.4 92 0.8 SSE 26 37 14 20 1023.0 1023.0 4.0
26/04:00am 18.7 17.1 17.4 92 0.8 SSE 22 32 12 17 1023.0 1023.0 4.0
26/03:30am 18.9 17.8 17.7 93 0.7 S 20 24 11 13 1023.1 1023.1 4.0
26/03:00am 19.2 18.4 18.0 93 0.7 SSE 19 24 10 13 1022.9 1022.9 4.0
26/02:30am 19.2 18.5 18.2 94 0.6 S 19 24 10 13 1022.9 1022.9 4.0
26/02:13am 19.2 18.9 18.2 94 0.6 S 17 22 9 12 1023.0 1023.0 4.0
26/02:00am 19.0 20.2 18.2 95 0.5 SSW 9 19 5 10 1023.1 1023.1 4.0
26/01:47am 19.0 20.2 18.2 95 0.5 S 9 15 5 8 1023.3 1023.3 3.8
26/01:30am 19.0 21.1 18.2 95 0.5 S 4 9 2 5 1023.5 1023.5 3.6
26/01:23am 19.1 21.6 18.1 94 0.6 ESE 2 9 1 5 1023.6 1023.6 3.4
26/01:07am 19.1 19.5 18.1 94 0.6 SSE 13 19 7 10 1023.6 1023.6 1.6
26/01:00am 19.2 19.6 18.2 94 0.6 S 13 19 7 10 1023.6 1023.6 0.8
26/12:31am 19.2 19.2 18.2 94 0.6 S 15 19 8 10 1023.6 1023.6 0.8
26/12:30am 19.2 19.2 18.2 94 0.6 S 15 19 8 10 1023.7 1023.7 0.8
26/12:13am 19.4 19.1 18.2 93 0.7 SSE 17 20 9 11 1023.7 1023.7 0.8
26/12:00am 19.3 18.5 18.1 93 0.7 SSE 19 28 10 15 1023.8 1023.8 0.0
 
Date/Time
EST
Temp
°C
App
Temp
°C
Dew
Point
Rel
Hum
%
Delta-T
°C
Wind Press
QNH
hPa
Press
MSL
hPa
Rain
since 9 am
mm
Dir
 
Spd
km/h
Gust
km/h
Spd
kts
Gust
kts
25/11:30pm 19.4 19.0 18.1 92 0.8 SSE 17 22 9 12 1023.8 1023.8 0.0
25/11:00pm 19.8 19.6 18.5 92 0.8 S 17 22 9 12 1024.4 1024.4 0.0
25/10:30pm 19.8 19.9 18.3 91 0.9 SSE 15 20 8 11 1024.5 1024.5 0.0
25/10:00pm 19.5 19.8 18.0 91 0.9 S 13 17 7 9 1024.6 1024.6 0.0
25/09:30pm 19.6 19.6 18.1 91 0.9 S 15 22 8 12 1024.6 1024.6 0.0
25/09:00pm 19.4 19.6 17.7 90 1.0 S 13 15 7 8 1024.3 1024.3 0.0
25/08:30pm 20.0 20.3 18.0 88 1.2 S 13 19 7 10 1024.0 1024.0 0.0
25/08:00pm 20.4 20.8 18.2 87 1.4 S 13 17 7 9 1023.9 1023.9 0.0
25/07:30pm 21.0 19.8 17.6 81 2.1 SSE 20 26 11 14 1023.5 1023.5 0.0
25/07:00pm 20.9 20.0 17.7 82 2.0 SSE 19 28 10 15 1023.5 1023.5 0.0
25/06:30pm 20.3 20.5 17.7 85 1.6 S 13 17 7 9 1023.5 1023.5 0.0
25/06:00pm 20.9 18.7 17.9 83 1.8 SE 26 37 14 20 1023.1 1023.1 0.0
25/05:30pm 22.1 20.8 18.1 78 2.5 SE 22 30 12 16 1023.1 1023.1 0.0
25/05:00pm 22.7 20.1 17.8 74 3.0 SE 28 37 15 20 1023.0 1023.0 0.0
25/04:30pm 23.4 21.6 18.7 75 3.0 SE 26 33 14 18 1022.8 1022.8 0.0
25/04:00pm 23.8 21.7 18.0 70 3.6 SE 26 35 14 19 1022.8 1022.8 0.0
25/03:30pm 24.0 22.0 18.2 70 3.6 SE 26 33 14 18 1022.8 1022.8 0.0
25/03:00pm 23.7 22.3 17.9 70 3.6 SSE 22 30 12 16 1022.9 1022.9 0.0
25/02:30pm 23.7 21.4 18.4 72 3.3 SE 28 33 15 18 1023.1 1023.1 0.0
25/02:00pm 24.5 22.3 18.7 70 3.7 SE 28 33 15 18 1023.0 1023.0 0.0
25/01:30pm 25.3 22.4 19.2 69 3.9 SE 33 41 18 22 1022.9 1022.9 0.0
25/01:00pm 23.8 21.2 17.8 69 3.7 SE 28 37 15 20 1023.3 1023.3 0.0
25/12:30pm 24.2 20.6 19.3 74 3.1 SE 37 50 20 27 1023.7 1023.7 0.0
25/12:00pm 24.6 21.5 18.5 69 3.8 SE 32 37 17 20 1024.0 1024.0 0.0
25/11:30am 24.1 21.0 18.3 70 3.7 SE 32 39 17 21 1024.3 1024.3 0.0
25/11:00am 24.1 21.9 18.7 72 3.4 SE 28 33 15 18 1024.7 1024.7 0.0
25/10:30am 23.6 21.5 18.9 75 3.0 SE 28 35 15 19 1025.3 1025.3 0.0
25/10:00am 22.5 20.4 18.1 76 2.7 SSE 26 33 14 18 1025.5 1025.5 0.0
25/09:30am 22.1 19.8 18.5 80 2.3 SSE 28 37 15 20 1025.6 1025.6 0.0
25/09:00am 21.2 19.5 18.2 83 1.9 SSE 24 32 13 17 1025.4 1025.4 1.2
25/08:30am 20.0 18.3 18.1 89 1.2 SSE 24 32 13 17 1025.1 1025.1 1.2
25/08:00am 19.2 17.9 17.3 89 1.2 SSE 20 28 11 15 1024.6 1024.6 1.2

Other Formats:

Comma delimited format used in spreadsheet applications
http://www.bom.gov.au/fwo/IDQ60801/IDQ60801.95367.axf

JavaScript Object Notation format (JSON) in row-major order
http://www.bom.gov.au/fwo/IDQ60801/IDQ60801.95367.json